sensor_id;sensor_type;location;lat;lon;timestamp;P1;durP1;ratioP1;P2;durP2;ratioP2
9140;SDS011;46330;50.822;7.126;2023-09-18T00:01:02;11.30;;;5.05;;
9140;SDS011;46330;50.822;7.126;2023-09-18T00:03:30;12.30;;;5.43;;
9140;SDS011;46330;50.822;7.126;2023-09-18T00:05:58;11.05;;;5.88;;
9140;SDS011;46330;50.822;7.126;2023-09-18T00:08:27;12.35;;;6.30;;
9140;SDS011;46330;50.822;7.126;2023-09-18T00:10:55;9.85;;;6.10;;
9140;SDS011;46330;50.822;7.126;2023-09-18T00:13:23;10.82;;;5.28;;
9140;SDS011;46330;50.822;7.126;2023-09-18T00:15:54;10.32;;;5.95;;
9140;SDS011;46330;50.822;7.126;2023-09-18T00:18:22;10.48;;;6.40;;
9140;SDS011;46330;50.822;7.126;2023-09-18T00:20:51;11.40;;;7.15;;
9140;SDS011;46330;50.822;7.126;2023-09-18T00:23:19;11.75;;;6.30;;
9140;SDS011;46330;50.822;7.126;2023-09-18T00:25:47;8.27;;;4.82;;
9140;SDS011;46330;50.822;7.126;2023-09-18T00:28:15;7.22;;;4.57;;
9140;SDS011;46330;50.822;7.126;2023-09-18T00:30:46;11.43;;;5.10;;
9140;SDS011;46330;50.822;7.126;2023-09-18T00:33:17;7.00;;;4.47;;
9140;SDS011;46330;50.822;7.126;2023-09-18T00:35:46;12.00;;;4.55;;
9140;SDS011;46330;50.822;7.126;2023-09-18T00:38:15;12.95;;;4.53;;
9140;SDS011;46330;50.822;7.126;2023-09-18T00:40:43;12.15;;;4.63;;
9140;SDS011;46330;50.822;7.126;2023-09-18T00:43:11;11.20;;;4.45;;
9140;SDS011;46330;50.822;7.126;2023-09-18T00:45:40;8.40;;;4.57;;
9140;SDS011;46330;50.822;7.126;2023-09-18T00:48:11;9.07;;;4.60;;
9140;SDS011;46330;50.822;7.126;2023-09-18T00:50:43;8.82;;;4.50;;
9140;SDS011;46330;50.822;7.126;2023-09-18T00:53:12;12.50;;;4.60;;
9140;SDS011;46330;50.822;7.126;2023-09-18T00:55:44;10.02;;;4.55;;
9140;SDS011;46330;50.822;7.126;2023-09-18T00:58:12;7.43;;;4.50;;
9140;SDS011;46330;50.822;7.126;2023-09-18T01:00:41;10.65;;;4.50;;
9140;SDS011;46330;50.822;7.126;2023-09-18T01:03:09;10.52;;;4.57;;
9140;SDS011;46330;50.822;7.126;2023-09-18T01:05:38;9.95;;;4.53;;
9140;SDS011;46330;50.822;7.126;2023-09-18T01:08:07;7.97;;;4.20;;
9140;SDS011;46330;50.822;7.126;2023-09-18T01:10:36;8.68;;;4.75;;
9140;SDS011;46330;50.822;7.126;2023-09-18T01:13:18;9.20;;;4.10;;
9140;SDS011;46330;50.822;7.126;2023-09-18T01:15:53;10.43;;;4.78;;
9140;SDS011;46330;50.822;7.126;2023-09-18T01:18:25;6.28;;;4.15;;
9140;SDS011;46330;50.822;7.126;2023-09-18T01:20:53;11.82;;;4.80;;
9140;SDS011;46330;50.822;7.126;2023-09-18T01:23:23;10.88;;;4.85;;
9140;SDS011;46330;50.822;7.126;2023-09-18T01:25:51;11.05;;;4.43;;
9140;SDS011;46330;50.822;7.126;2023-09-18T01:28:19;7.85;;;4.10;;
9140;SDS011;46330;50.822;7.126;2023-09-18T01:30:46;11.57;;;4.95;;
9140;SDS011;46330;50.822;7.126;2023-09-18T01:33:14;10.52;;;4.40;;
9140;SDS011;46330;50.822;7.126;2023-09-18T01:35:44;7.07;;;4.22;;
9140;SDS011;46330;50.822;7.126;2023-09-18T01:38:13;9.73;;;4.38;;
9140;SDS011;46330;50.822;7.126;2023-09-18T01:40:43;9.13;;;4.47;;
9140;SDS011;46330;50.822;7.126;2023-09-18T01:43:11;7.45;;;4.80;;
9140;SDS011;46330;50.822;7.126;2023-09-18T01:45:40;10.50;;;4.32;;
9140;SDS011;46330;50.822;7.126;2023-09-18T01:48:09;11.20;;;4.55;;
9140;SDS011;46330;50.822;7.126;2023-09-18T01:50:37;8.95;;;4.63;;
9140;SDS011;46330;50.822;7.126;2023-09-18T01:53:06;8.70;;;4.22;;
9140;SDS011;46330;50.822;7.126;2023-09-18T01:55:34;8.75;;;4.03;;
9140;SDS011;46330;50.822;7.126;2023-09-18T01:58:04;14.98;;;4.28;;
9140;SDS011;46330;50.822;7.126;2023-09-18T02:00:32;9.38;;;3.88;;
9140;SDS011;46330;50.822;7.126;2023-09-18T02:03:01;11.23;;;3.80;;
9140;SDS011;46330;50.822;7.126;2023-09-18T02:05:46;10.30;;;4.30;;
9140;SDS011;46330;50.822;7.126;2023-09-18T02:08:14;12.55;;;4.20;;
9140;SDS011;46330;50.822;7.126;2023-09-18T02:10:42;9.52;;;4.07;;
9140;SDS011;46330;50.822;7.126;2023-09-18T02:13:12;9.27;;;4.25;;
9140;SDS011;46330;50.822;7.126;2023-09-18T02:15:40;10.77;;;4.10;;
9140;SDS011;46330;50.822;7.126;2023-09-18T02:18:08;9.77;;;3.88;;
9140;SDS011;46330;50.822;7.126;2023-09-18T02:20:39;12.60;;;4.15;;
9140;SDS011;46330;50.822;7.126;2023-09-18T02:23:08;11.38;;;4.00;;
9140;SDS011;46330;50.822;7.126;2023-09-18T02:25:36;9.10;;;4.00;;
9140;SDS011;46330;50.822;7.126;2023-09-18T02:28:07;12.00;;;4.00;;
9140;SDS011;46330;50.822;7.126;2023-09-18T02:30:37;10.45;;;3.85;;
9140;SDS011;46330;50.822;7.126;2023-09-18T02:33:05;11.23;;;4.35;;
9140;SDS011;46330;50.822;7.126;2023-09-18T02:35:34;8.70;;;4.00;;
9140;SDS011;46330;50.822;7.126;2023-09-18T02:38:02;9.05;;;4.22;;
9140;SDS011;46330;50.822;7.126;2023-09-18T02:40:31;9.40;;;4.13;;
9140;SDS011;46330;50.822;7.126;2023-09-18T02:42:59;10.80;;;4.30;;
9140;SDS011;46330;50.822;7.126;2023-09-18T02:45:28;11.90;;;4.05;;
9140;SDS011;46330;50.822;7.126;2023-09-18T02:47:57;10.45;;;3.97;;
9140;SDS011;46330;50.822;7.126;2023-09-18T02:50:25;17.02;;;4.70;;
9140;SDS011;46330;50.822;7.126;2023-09-18T02:52:54;12.20;;;4.35;;
9140;SDS011;46330;50.822;7.126;2023-09-18T02:55:22;9.18;;;4.22;;
9140;SDS011;46330;50.822;7.126;2023-09-18T02:57:49;10.85;;;4.50;;
9140;SDS011;46330;50.822;7.126;2023-09-18T03:00:17;8.68;;;4.50;;
9140;SDS011;46330;50.822;7.126;2023-09-18T03:03:07;11.45;;;4.25;;
9140;SDS011;46330;50.822;7.126;2023-09-18T03:05:35;10.13;;;4.05;;
9140;SDS011;46330;50.822;7.126;2023-09-18T03:08:04;15.02;;;5.03;;
9140;SDS011;46330;50.822;7.126;2023-09-18T03:10:33;11.27;;;4.72;;
9140;SDS011;46330;50.822;7.126;2023-09-18T03:13:01;10.60;;;4.22;;
9140;SDS011;46330;50.822;7.126;2023-09-18T03:15:31;10.38;;;4.25;;
9140;SDS011;46330;50.822;7.126;2023-09-18T03:18:00;14.90;;;4.40;;
9140;SDS011;46330;50.822;7.126;2023-09-18T03:20:31;14.30;;;4.63;;
9140;SDS011;46330;50.822;7.126;2023-09-18T03:23:00;12.15;;;4.25;;
9140;SDS011;46330;50.822;7.126;2023-09-18T03:25:29;11.75;;;4.25;;
9140;SDS011;46330;50.822;7.126;2023-09-18T03:28:18;11.45;;;4.80;;
9140;SDS011;46330;50.822;7.126;2023-09-18T03:30:48;12.15;;;4.72;;
9140;SDS011;46330;50.822;7.126;2023-09-18T03:33:19;11.10;;;4.60;;
9140;SDS011;46330;50.822;7.126;2023-09-18T03:35:50;12.52;;;4.75;;
9140;SDS011;46330;50.822;7.126;2023-09-18T03:38:23;12.88;;;4.88;;
9140;SDS011;46330;50.822;7.126;2023-09-18T03:40:53;10.82;;;5.57;;
9140;SDS011;46330;50.822;7.126;2023-09-18T03:43:21;11.18;;;4.30;;
9140;SDS011;46330;50.822;7.126;2023-09-18T03:45:49;12.63;;;4.95;;
9140;SDS011;46330;50.822;7.126;2023-09-18T03:48:18;11.23;;;4.32;;
9140;SDS011;46330;50.822;7.126;2023-09-18T03:50:48;12.77;;;4.10;;
9140;SDS011;46330;50.822;7.126;2023-09-18T03:53:16;14.68;;;4.20;;
9140;SDS011;46330;50.822;7.126;2023-09-18T03:55:44;16.08;;;4.10;;
9140;SDS011;46330;50.822;7.126;2023-09-18T03:58:12;12.32;;;3.95;;
9140;SDS011;46330;50.822;7.126;2023-09-18T04:00:41;13.93;;;3.83;;
9140;SDS011;46330;50.822;7.126;2023-09-18T04:03:09;14.07;;;4.30;;
9140;SDS011;46330;50.822;7.126;2023-09-18T04:05:37;11.57;;;3.83;;
9140;SDS011;46330;50.822;7.126;2023-09-18T04:08:07;10.43;;;3.70;;
9140;SDS011;46330;50.822;7.126;2023-09-18T04:10:35;10.05;;;3.55;;
9140;SDS011;46330;50.822;7.126;2023-09-18T04:13:03;11.50;;;3.75;;
9140;SDS011;46330;50.822;7.126;2023-09-18T04:15:31;13.77;;;3.83;;
9140;SDS011;46330;50.822;7.126;2023-09-18T04:17:59;8.55;;;3.05;;
9140;SDS011;46330;50.822;7.126;2023-09-18T04:20:27;11.25;;;3.50;;
9140;SDS011;46330;50.822;7.126;2023-09-18T04:25:49;11.75;;;3.40;;
9140;SDS011;46330;50.822;7.126;2023-09-18T04:28:18;12.50;;;3.53;;
9140;SDS011;46330;50.822;7.126;2023-09-18T04:30:47;11.00;;;3.65;;
9140;SDS011;46330;50.822;7.126;2023-09-18T04:33:16;16.17;;;3.72;;
9140;SDS011;46330;50.822;7.126;2023-09-18T04:35:46;14.02;;;3.25;;
9140;SDS011;46330;50.822;7.126;2023-09-18T04:38:15;12.43;;;3.55;;
9140;SDS011;46330;50.822;7.126;2023-09-18T04:40:47;12.60;;;3.78;;
9140;SDS011;46330;50.822;7.126;2023-09-18T04:43:15;13.02;;;3.53;;
9140;SDS011;46330;50.822;7.126;2023-09-18T04:45:44;13.50;;;3.28;;
9140;SDS011;46330;50.822;7.126;2023-09-18T04:48:14;12.55;;;3.30;;
9140;SDS011;46330;50.822;7.126;2023-09-18T04:50:42;15.48;;;3.40;;
9140;SDS011;46330;50.822;7.126;2023-09-18T04:53:12;12.80;;;3.08;;
9140;SDS011;46330;50.822;7.126;2023-09-18T04:55:41;9.95;;;3.03;;
9140;SDS011;46330;50.822;7.126;2023-09-18T04:58:10;14.48;;;3.67;;
9140;SDS011;46330;50.822;7.126;2023-09-18T05:00:38;12.07;;;3.03;;
9140;SDS011;46330;50.822;7.126;2023-09-18T05:03:06;11.90;;;3.20;;
9140;SDS011;46330;50.822;7.126;2023-09-18T05:05:36;10.75;;;3.63;;
9140;SDS011;46330;50.822;7.126;2023-09-18T05:08:05;12.02;;;3.50;;
9140;SDS011;46330;50.822;7.126;2023-09-18T05:10:35;9.65;;;3.45;;
9140;SDS011;46330;50.822;7.126;2023-09-18T05:13:04;12.80;;;3.65;;
9140;SDS011;46330;50.822;7.126;2023-09-18T05:15:34;16.65;;;3.40;;
9140;SDS011;46330;50.822;7.126;2023-09-18T05:18:02;13.25;;;3.03;;
9140;SDS011;46330;50.822;7.126;2023-09-18T05:20:31;13.80;;;3.03;;
9140;SDS011;46330;50.822;7.126;2023-09-18T05:22:59;11.60;;;3.13;;
9140;SDS011;46330;50.822;7.126;2023-09-18T05:25:28;18.88;;;4.05;;
9140;SDS011;46330;50.822;7.126;2023-09-18T05:27:58;11.75;;;3.00;;
9140;SDS011;46330;50.822;7.126;2023-09-18T05:30:29;14.00;;;3.22;;
9140;SDS011;46330;50.822;7.126;2023-09-18T05:33:01;13.30;;;2.92;;
9140;SDS011;46330;50.822;7.126;2023-09-18T05:35:31;10.13;;;3.35;;
9140;SDS011;46330;50.822;7.126;2023-09-18T05:38:00;10.27;;;3.10;;
9140;SDS011;46330;50.822;7.126;2023-09-18T05:40:28;11.68;;;3.00;;
9140;SDS011;46330;50.822;7.126;2023-09-18T05:42:56;13.10;;;2.97;;
9140;SDS011;46330;50.822;7.126;2023-09-18T05:45:24;9.98;;;3.13;;
9140;SDS011;46330;50.822;7.126;2023-09-18T05:47:53;8.48;;;3.00;;
9140;SDS011;46330;50.822;7.126;2023-09-18T05:50:29;8.88;;;2.70;;
9140;SDS011;46330;50.822;7.126;2023-09-18T05:52:59;9.63;;;3.00;;
9140;SDS011;46330;50.822;7.126;2023-09-18T05:55:30;12.57;;;3.08;;
9140;SDS011;46330;50.822;7.126;2023-09-18T05:57:59;11.32;;;2.90;;
9140;SDS011;46330;50.822;7.126;2023-09-18T06:00:29;11.10;;;2.50;;
9140;SDS011;46330;50.822;7.126;2023-09-18T06:02:58;11.50;;;2.75;;
9140;SDS011;46330;50.822;7.126;2023-09-18T06:05:27;10.15;;;2.75;;
9140;SDS011;46330;50.822;7.126;2023-09-18T06:07:59;6.38;;;2.30;;
9140;SDS011;46330;50.822;7.126;2023-09-18T06:10:27;7.90;;;2.28;;
9140;SDS011;46330;50.822;7.126;2023-09-18T06:12:55;7.13;;;2.40;;
9140;SDS011;46330;50.822;7.126;2023-09-18T06:15:24;8.32;;;2.55;;
9140;SDS011;46330;50.822;7.126;2023-09-18T06:17:52;9.65;;;2.13;;
9140;SDS011;46330;50.822;7.126;2023-09-18T06:20:21;8.35;;;2.20;;
9140;SDS011;46330;50.822;7.126;2023-09-18T06:22:49;5.18;;;1.85;;
9140;SDS011;46330;50.822;7.126;2023-09-18T06:25:18;10.00;;;2.20;;
9140;SDS011;46330;50.822;7.126;2023-09-18T06:27:46;6.82;;;2.15;;
9140;SDS011;46330;50.822;7.126;2023-09-18T06:30:14;8.50;;;2.28;;
9140;SDS011;46330;50.822;7.126;2023-09-18T06:32:42;5.55;;;1.85;;
9140;SDS011;46330;50.822;7.126;2023-09-18T06:35:11;13.23;;;2.50;;
9140;SDS011;46330;50.822;7.126;2023-09-18T06:37:39;5.68;;;2.20;;
9140;SDS011;46330;50.822;7.126;2023-09-18T06:40:07;5.95;;;1.83;;
9140;SDS011;46330;50.822;7.126;2023-09-18T06:42:37;10.07;;;2.00;;
9140;SDS011;46330;50.822;7.126;2023-09-18T06:45:08;3.58;;;1.63;;
9140;SDS011;46330;50.822;7.126;2023-09-18T06:47:36;7.35;;;2.20;;
9140;SDS011;46330;50.822;7.126;2023-09-18T06:50:07;7.93;;;2.03;;
9140;SDS011;46330;50.822;7.126;2023-09-18T06:52:38;6.32;;;1.70;;
9140;SDS011;46330;50.822;7.126;2023-09-18T06:55:07;6.07;;;1.70;;
9140;SDS011;46330;50.822;7.126;2023-09-18T06:57:35;5.90;;;1.73;;
9140;SDS011;46330;50.822;7.126;2023-09-18T07:00:05;6.57;;;1.77;;
9140;SDS011;46330;50.822;7.126;2023-09-18T07:02:34;7.93;;;1.95;;
9140;SDS011;46330;50.822;7.126;2023-09-18T07:05:02;6.20;;;1.80;;
9140;SDS011;46330;50.822;7.126;2023-09-18T07:07:31;6.00;;;1.65;;
9140;SDS011;46330;50.822;7.126;2023-09-18T07:09:59;5.10;;;1.70;;
9140;SDS011;46330;50.822;7.126;2023-09-18T07:12:31;4.47;;;1.90;;
9140;SDS011;46330;50.822;7.126;2023-09-18T07:15:01;4.78;;;1.67;;
9140;SDS011;46330;50.822;7.126;2023-09-18T07:17:31;6.35;;;1.88;;
9140;SDS011;46330;50.822;7.126;2023-09-18T07:20:00;2.90;;;1.27;;
9140;SDS011;46330;50.822;7.126;2023-09-18T07:22:34;8.00;;;1.75;;
9140;SDS011;46330;50.822;7.126;2023-09-18T07:25:02;4.18;;;1.40;;
9140;SDS011;46330;50.822;7.126;2023-09-18T07:27:30;4.80;;;1.67;;
9140;SDS011;46330;50.822;7.126;2023-09-18T07:29:58;5.32;;;1.58;;
9140;SDS011;46330;50.822;7.126;2023-09-18T07:32:28;5.90;;;1.50;;
9140;SDS011;46330;50.822;7.126;2023-09-18T07:35:04;6.28;;;1.60;;
9140;SDS011;46330;50.822;7.126;2023-09-18T07:37:33;7.75;;;1.60;;
9140;SDS011;46330;50.822;7.126;2023-09-18T07:40:02;6.05;;;1.50;;
9140;SDS011;46330;50.822;7.126;2023-09-18T07:42:30;4.28;;;1.50;;
9140;SDS011;46330;50.822;7.126;2023-09-18T07:44:58;3.28;;;1.23;;
9140;SDS011;46330;50.822;7.126;2023-09-18T07:47:28;6.18;;;1.67;;
9140;SDS011;46330;50.822;7.126;2023-09-18T07:49:57;3.05;;;1.45;;
9140;SDS011;46330;50.822;7.126;2023-09-18T07:52:25;3.35;;;1.40;;
9140;SDS011;46330;50.822;7.126;2023-09-18T07:54:53;3.85;;;1.67;;
9140;SDS011;46330;50.822;7.126;2023-09-18T07:57:21;4.22;;;1.30;;
9140;SDS011;46330;50.822;7.126;2023-09-18T07:59:50;5.50;;;1.40;;
9140;SDS011;46330;50.822;7.126;2023-09-18T08:02:18;7.65;;;1.60;;
9140;SDS011;46330;50.822;7.126;2023-09-18T08:04:49;3.15;;;1.42;;
9140;SDS011;46330;50.822;7.126;2023-09-18T08:07:18;5.90;;;1.60;;
9140;SDS011;46330;50.822;7.126;2023-09-18T08:09:46;4.50;;;1.58;;
9140;SDS011;46330;50.822;7.126;2023-09-18T08:12:15;3.22;;;1.35;;
9140;SDS011;46330;50.822;7.126;2023-09-18T08:14:43;3.30;;;1.58;;
9140;SDS011;46330;50.822;7.126;2023-09-18T08:17:11;5.28;;;1.50;;
9140;SDS011;46330;50.822;7.126;2023-09-18T08:19:39;3.47;;;1.40;;
9140;SDS011;46330;50.822;7.126;2023-09-18T08:22:09;4.07;;;1.50;;
9140;SDS011;46330;50.822;7.126;2023-09-18T08:24:38;5.55;;;1.55;;
9140;SDS011;46330;50.822;7.126;2023-09-18T08:27:06;6.10;;;1.60;;
9140;SDS011;46330;50.822;7.126;2023-09-18T08:29:34;4.35;;;1.45;;
9140;SDS011;46330;50.822;7.126;2023-09-18T08:32:01;6.22;;;1.90;;
9140;SDS011;46330;50.822;7.126;2023-09-18T08:34:29;4.20;;;1.95;;
9140;SDS011;46330;50.822;7.126;2023-09-18T08:36:57;3.17;;;1.20;;
9140;SDS011;46330;50.822;7.126;2023-09-18T08:39:27;6.70;;;2.30;;
9140;SDS011;46330;50.822;7.126;2023-09-18T08:41:56;4.68;;;1.38;;
9140;SDS011;46330;50.822;7.126;2023-09-18T08:44:30;4.60;;;1.40;;
9140;SDS011;46330;50.822;7.126;2023-09-18T08:46:58;3.10;;;1.30;;
9140;SDS011;46330;50.822;7.126;2023-09-18T08:49:27;6.13;;;1.50;;
9140;SDS011;46330;50.822;7.126;2023-09-18T08:51:57;3.33;;;1.30;;
9140;SDS011;46330;50.822;7.126;2023-09-18T08:54:28;6.15;;;1.90;;
9140;SDS011;46330;50.822;7.126;2023-09-18T08:56:56;4.22;;;1.50;;
9140;SDS011;46330;50.822;7.126;2023-09-18T08:59:24;6.80;;;1.85;;
9140;SDS011;46330;50.822;7.126;2023-09-18T09:01:56;3.58;;;1.35;;
9140;SDS011;46330;50.822;7.126;2023-09-18T09:04:24;8.10;;;1.77;;
9140;SDS011;46330;50.822;7.126;2023-09-18T09:06:52;4.63;;;1.58;;
9140;SDS011;46330;50.822;7.126;2023-09-18T09:09:24;3.38;;;1.45;;
9140;SDS011;46330;50.822;7.126;2023-09-18T09:11:54;7.03;;;1.60;;
9140;SDS011;46330;50.822;7.126;2023-09-18T09:14:21;5.20;;;1.55;;
9140;SDS011;46330;50.822;7.126;2023-09-18T09:16:55;4.05;;;1.60;;
9140;SDS011;46330;50.822;7.126;2023-09-18T09:19:27;2.65;;;1.35;;
9140;SDS011;46330;50.822;7.126;2023-09-18T09:21:57;3.75;;;1.50;;
9140;SDS011;46330;50.822;7.126;2023-09-18T09:24:37;2.92;;;1.30;;
9140;SDS011;46330;50.822;7.126;2023-09-18T09:27:08;6.43;;;1.60;;
9140;SDS011;46330;50.822;7.126;2023-09-18T09:29:36;4.13;;;1.60;;
9140;SDS011;46330;50.822;7.126;2023-09-18T09:32:14;3.72;;;1.38;;
9140;SDS011;46330;50.822;7.126;2023-09-18T09:34:44;3.10;;;1.60;;
9140;SDS011;46330;50.822;7.126;2023-09-18T09:37:15;4.70;;;1.25;;
9140;SDS011;46330;50.822;7.126;2023-09-18T09:39:47;4.43;;;1.70;;
9140;SDS011;46330;50.822;7.126;2023-09-18T09:42:18;4.85;;;1.42;;
9140;SDS011;46330;50.822;7.126;2023-09-18T09:47:32;1.65;;;1.05;;
9140;SDS011;46330;50.822;7.126;2023-09-18T09:50:05;6.75;;;1.27;;
9140;SDS011;46330;50.822;7.126;2023-09-18T09:52:36;3.47;;;1.30;;
9140;SDS011;46330;50.822;7.126;2023-09-18T09:55:18;5.57;;;1.50;;
9140;SDS011;46330;50.822;7.126;2023-09-18T09:57:49;3.47;;;1.38;;
9140;SDS011;46330;50.822;7.126;2023-09-18T10:00:18;4.95;;;1.40;;
9140;SDS011;46330;50.822;7.126;2023-09-18T10:02:54;3.25;;;1.20;;
9140;SDS011;46330;50.822;7.126;2023-09-18T10:05:26;5.20;;;1.17;;
9140;SDS011;46330;50.822;7.126;2023-09-18T10:07:57;5.35;;;1.30;;
9140;SDS011;46330;50.822;7.126;2023-09-18T10:10:30;2.17;;;1.05;;
9140;SDS011;46330;50.822;7.126;2023-09-18T10:13:02;2.43;;;1.27;;
9140;SDS011;46330;50.822;7.126;2023-09-18T10:15:37;3.97;;;1.27;;
9140;SDS011;46330;50.822;7.126;2023-09-18T10:18:17;4.05;;;1.23;;
9140;SDS011;46330;50.822;7.126;2023-09-18T10:20:50;2.38;;;1.13;;
9140;SDS011;46330;50.822;7.126;2023-09-18T10:23:30;2.33;;;0.90;;
9140;SDS011;46330;50.822;7.126;2023-09-18T10:26:07;2.53;;;1.27;;
9140;SDS011;46330;50.822;7.126;2023-09-18T10:28:39;3.75;;;1.00;;
9140;SDS011;46330;50.822;7.126;2023-09-18T10:31:07;3.28;;;1.50;;
9140;SDS011;46330;50.822;7.126;2023-09-18T10:33:38;5.22;;;1.40;;
9140;SDS011;46330;50.822;7.126;2023-09-18T10:36:07;5.10;;;0.90;;
9140;SDS011;46330;50.822;7.126;2023-09-18T10:38:36;4.75;;;1.20;;
9140;SDS011;46330;50.822;7.126;2023-09-18T10:41:05;2.80;;;0.93;;
9140;SDS011;46330;50.822;7.126;2023-09-18T10:43:36;1.75;;;1.05;;
9140;SDS011;46330;50.822;7.126;2023-09-18T10:46:06;2.53;;;1.13;;
9140;SDS011;46330;50.822;7.126;2023-09-18T10:48:34;5.05;;;1.33;;
9140;SDS011;46330;50.822;7.126;2023-09-18T10:51:02;2.95;;;0.98;;
9140;SDS011;46330;50.822;7.126;2023-09-18T10:53:32;3.70;;;0.88;;
9140;SDS011;46330;50.822;7.126;2023-09-18T10:56:00;4.63;;;1.00;;
9140;SDS011;46330;50.822;7.126;2023-09-18T10:58:30;3.10;;;0.93;;
9140;SDS011;46330;50.822;7.126;2023-09-18T11:01:01;4.18;;;0.90;;
9140;SDS011;46330;50.822;7.126;2023-09-18T11:03:34;2.53;;;0.73;;
9140;SDS011;46330;50.822;7.126;2023-09-18T11:06:02;3.88;;;0.90;;
9140;SDS011;46330;50.822;7.126;2023-09-18T11:08:32;1.77;;;0.63;;
9140;SDS011;46330;50.822;7.126;2023-09-18T11:11:02;3.08;;;1.20;;
9140;SDS011;46330;50.822;7.126;2023-09-18T11:13:38;2.22;;;0.93;;
9140;SDS011;46330;50.822;7.126;2023-09-18T11:16:18;3.10;;;0.90;;
9140;SDS011;46330;50.822;7.126;2023-09-18T11:19:07;3.33;;;0.80;;
9140;SDS011;46330;50.822;7.126;2023-09-18T11:21:37;2.13;;;1.00;;
9140;SDS011;46330;50.822;7.126;2023-09-18T11:24:06;3.75;;;0.90;;
9140;SDS011;46330;50.822;7.126;2023-09-18T11:26:39;3.08;;;0.98;;
9140;SDS011;46330;50.822;7.126;2023-09-18T11:29:09;1.13;;;0.70;;
9140;SDS011;46330;50.822;7.126;2023-09-18T11:31:41;4.45;;;1.10;;
9140;SDS011;46330;50.822;7.126;2023-09-18T11:34:12;1.58;;;0.98;;
9140;SDS011;46330;50.822;7.126;2023-09-18T11:36:41;3.47;;;1.10;;
9140;SDS011;46330;50.822;7.126;2023-09-18T11:39:09;2.47;;;1.20;;
9140;SDS011;46330;50.822;7.126;2023-09-18T11:41:38;4.18;;;1.00;;
9140;SDS011;46330;50.822;7.126;2023-09-18T11:47:03;1.48;;;0.95;;
9140;SDS011;46330;50.822;7.126;2023-09-18T11:49:37;1.75;;;0.77;;
9140;SDS011;46330;50.822;7.126;2023-09-18T11:52:08;2.60;;;1.10;;
9140;SDS011;46330;50.822;7.126;2023-09-18T11:54:38;2.85;;;1.10;;
9140;SDS011;46330;50.822;7.126;2023-09-18T11:57:07;2.22;;;0.90;;
9140;SDS011;46330;50.822;7.126;2023-09-18T11:59:37;1.90;;;1.20;;
9140;SDS011;46330;50.822;7.126;2023-09-18T12:02:10;2.25;;;0.80;;
9140;SDS011;46330;50.822;7.126;2023-09-18T12:04:48;4.72;;;1.13;;
9140;SDS011;46330;50.822;7.126;2023-09-18T12:07:16;3.38;;;1.05;;
9140;SDS011;46330;50.822;7.126;2023-09-18T12:09:44;1.77;;;0.88;;
9140;SDS011;46330;50.822;7.126;2023-09-18T12:12:12;2.35;;;1.10;;
9140;SDS011;46330;50.822;7.126;2023-09-18T12:14:41;2.28;;;1.50;;
9140;SDS011;46330;50.822;7.126;2023-09-18T12:17:14;2.45;;;1.08;;
9140;SDS011;46330;50.822;7.126;2023-09-18T12:19:51;3.72;;;1.10;;
9140;SDS011;46330;50.822;7.126;2023-09-18T12:22:23;2.17;;;1.08;;
9140;SDS011;46330;50.822;7.126;2023-09-18T12:24:52;2.20;;;1.00;;
9140;SDS011;46330;50.822;7.126;2023-09-18T12:27:21;3.05;;;1.20;;
9140;SDS011;46330;50.822;7.126;2023-09-18T12:29:53;4.05;;;1.30;;
9140;SDS011;46330;50.822;7.126;2023-09-18T12:32:22;2.65;;;0.95;;
9140;SDS011;46330;50.822;7.126;2023-09-18T12:34:53;1.63;;;1.17;;
9140;SDS011;46330;50.822;7.126;2023-09-18T12:37:21;4.78;;;1.05;;
9140;SDS011;46330;50.822;7.126;2023-09-18T12:39:50;2.70;;;1.15;;
9140;SDS011;46330;50.822;7.126;2023-09-18T12:42:19;4.07;;;1.00;;
9140;SDS011;46330;50.822;7.126;2023-09-18T12:44:47;3.53;;;1.27;;
9140;SDS011;46330;50.822;7.126;2023-09-18T12:47:16;3.22;;;1.00;;
9140;SDS011;46330;50.822;7.126;2023-09-18T12:49:44;2.78;;;1.05;;
9140;SDS011;46330;50.822;7.126;2023-09-18T12:52:21;2.67;;;1.00;;
9140;SDS011;46330;50.822;7.126;2023-09-18T12:54:50;2.40;;;1.15;;
9140;SDS011;46330;50.822;7.126;2023-09-18T12:57:20;2.47;;;1.17;;
9140;SDS011;46330;50.822;7.126;2023-09-18T12:59:48;1.65;;;1.15;;
9140;SDS011;46330;50.822;7.126;2023-09-18T13:02:19;2.88;;;1.10;;
9140;SDS011;46330;50.822;7.126;2023-09-18T13:04:50;3.22;;;1.00;;
9140;SDS011;46330;50.822;7.126;2023-09-18T13:07:20;4.47;;;1.15;;
9140;SDS011;46330;50.822;7.126;2023-09-18T13:10:00;3.35;;;1.20;;
9140;SDS011;46330;50.822;7.126;2023-09-18T13:12:39;2.80;;;1.00;;
9140;SDS011;46330;50.822;7.126;2023-09-18T13:15:08;7.38;;;1.30;;
9140;SDS011;46330;50.822;7.126;2023-09-18T13:17:39;3.30;;;1.30;;
9140;SDS011;46330;50.822;7.126;2023-09-18T13:20:11;3.33;;;1.27;;
9140;SDS011;46330;50.822;7.126;2023-09-18T13:22:42;3.88;;;1.38;;
9140;SDS011;46330;50.822;7.126;2023-09-18T13:25:18;3.72;;;1.50;;
9140;SDS011;46330;50.822;7.126;2023-09-18T13:27:47;3.58;;;1.17;;
9140;SDS011;46330;50.822;7.126;2023-09-18T13:30:15;4.03;;;1.27;;
9140;SDS011;46330;50.822;7.126;2023-09-18T13:32:44;3.05;;;1.15;;
9140;SDS011;46330;50.822;7.126;2023-09-18T13:35:14;2.47;;;1.02;;
9140;SDS011;46330;50.822;7.126;2023-09-18T13:37:44;2.22;;;1.00;;
9140;SDS011;46330;50.822;7.126;2023-09-18T13:40:12;1.40;;;1.02;;
9140;SDS011;46330;50.822;7.126;2023-09-18T13:42:40;2.38;;;1.00;;
9140;SDS011;46330;50.822;7.126;2023-09-18T13:45:08;2.78;;;1.10;;
9140;SDS011;46330;50.822;7.126;2023-09-18T13:47:37;2.25;;;1.10;;
9140;SDS011;46330;50.822;7.126;2023-09-18T13:50:05;3.92;;;1.40;;
9140;SDS011;46330;50.822;7.126;2023-09-18T13:52:34;3.60;;;1.20;;
9140;SDS011;46330;50.822;7.126;2023-09-18T13:55:04;5.00;;;1.38;;
9140;SDS011;46330;50.822;7.126;2023-09-18T13:57:32;2.65;;;1.42;;
9140;SDS011;46330;50.822;7.126;2023-09-18T14:00:02;3.38;;;1.13;;
9140;SDS011;46330;50.822;7.126;2023-09-18T14:02:37;2.22;;;1.30;;
9140;SDS011;46330;50.822;7.126;2023-09-18T14:05:06;3.75;;;1.33;;
9140;SDS011;46330;50.822;7.126;2023-09-18T14:07:35;5.07;;;1.40;;
9140;SDS011;46330;50.822;7.126;2023-09-18T14:10:07;4.35;;;1.20;;
9140;SDS011;46330;50.822;7.126;2023-09-18T14:12:36;2.03;;;1.00;;
9140;SDS011;46330;50.822;7.126;2023-09-18T14:15:05;4.20;;;1.10;;
9140;SDS011;46330;50.822;7.126;2023-09-18T14:17:34;3.65;;;1.20;;
9140;SDS011;46330;50.822;7.126;2023-09-18T14:20:03;3.33;;;1.30;;
9140;SDS011;46330;50.822;7.126;2023-09-18T14:22:33;2.45;;;1.20;;
9140;SDS011;46330;50.822;7.126;2023-09-18T14:25:02;1.92;;;1.10;;
9140;SDS011;46330;50.822;7.126;2023-09-18T14:27:35;2.53;;;1.20;;
9140;SDS011;46330;50.822;7.126;2023-09-18T14:30:03;2.80;;;1.10;;
9140;SDS011;46330;50.822;7.126;2023-09-18T14:32:34;4.03;;;1.27;;
9140;SDS011;46330;50.822;7.126;2023-09-18T14:35:04;4.18;;;1.02;;
9140;SDS011;46330;50.822;7.126;2023-09-18T14:37:34;6.18;;;1.27;;
9140;SDS011;46330;50.822;7.126;2023-09-18T14:40:03;2.90;;;1.10;;
9140;SDS011;46330;50.822;7.126;2023-09-18T14:42:31;3.20;;;1.90;;
9140;SDS011;46330;50.822;7.126;2023-09-18T14:45:01;3.08;;;1.50;;
9140;SDS011;46330;50.822;7.126;2023-09-18T14:47:29;2.25;;;1.15;;
9140;SDS011;46330;50.822;7.126;2023-09-18T14:49:57;4.28;;;1.10;;
9140;SDS011;46330;50.822;7.126;2023-09-18T14:52:27;5.55;;;1.27;;
9140;SDS011;46330;50.822;7.126;2023-09-18T14:54:56;4.10;;;1.30;;
9140;SDS011;46330;50.822;7.126;2023-09-18T14:57:24;2.30;;;1.20;;
9140;SDS011;46330;50.822;7.126;2023-09-18T14:59:53;2.42;;;1.30;;
9140;SDS011;46330;50.822;7.126;2023-09-18T15:02:22;3.97;;;1.50;;
9140;SDS011;46330;50.822;7.126;2023-09-18T15:04:55;2.72;;;1.20;;
9140;SDS011;46330;50.822;7.126;2023-09-18T15:07:23;4.47;;;1.38;;
9140;SDS011;46330;50.822;7.126;2023-09-18T15:09:51;4.13;;;1.40;;
9140;SDS011;46330;50.822;7.126;2023-09-18T15:12:19;2.38;;;1.30;;
9140;SDS011;46330;50.822;7.126;2023-09-18T15:14:47;5.10;;;1.50;;
9140;SDS011;46330;50.822;7.126;2023-09-18T15:17:15;5.22;;;1.42;;
9140;SDS011;46330;50.822;7.126;2023-09-18T15:19:44;4.20;;;1.20;;
9140;SDS011;46330;50.822;7.126;2023-09-18T15:22:15;1.92;;;1.27;;